sensor_id;sensor_type;location;lat;lon;timestamp;temperature;humidity
24446;DHT22;13347;50.984;5.822;2023-07-13T00:00:41;16.50;1.00
24446;DHT22;13347;50.984;5.822;2023-07-13T00:03:08;16.50;1.00
24446;DHT22;13347;50.984;5.822;2023-07-13T00:05:39;16.40;99.90
24446;DHT22;13347;50.984;5.822;2023-07-13T00:08:06;16.40;99.90
24446;DHT22;13347;50.984;5.822;2023-07-13T00:10:38;16.40;99.90
24446;DHT22;13347;50.984;5.822;2023-07-13T00:13:05;16.30;99.90
24446;DHT22;13347;50.984;5.822;2023-07-13T00:15:34;16.30;1.00
24446;DHT22;13347;50.984;5.822;2023-07-13T00:18:01;16.30;1.00
24446;DHT22;13347;50.984;5.822;2023-07-13T00:20:28;16.30;1.00
24446;DHT22;13347;50.984;5.822;2023-07-13T00:22:55;16.20;1.00
24446;DHT22;13347;50.984;5.822;2023-07-13T00:25:23;16.20;1.00
24446;DHT22;13347;50.984;5.822;2023-07-13T00:27:53;16.20;1.00
24446;DHT22;13347;50.984;5.822;2023-07-13T00:30:21;16.10;99.90
24446;DHT22;13347;50.984;5.822;2023-07-13T00:32:49;16.10;99.90
24446;DHT22;13347;50.984;5.822;2023-07-13T00:35:17;16.10;99.90
24446;DHT22;13347;50.984;5.822;2023-07-13T00:37:44;16.20;99.90
24446;DHT22;13347;50.984;5.822;2023-07-13T00:40:12;16.20;99.90
24446;DHT22;13347;50.984;5.822;2023-07-13T00:42:39;16.20;1.00
24446;DHT22;13347;50.984;5.822;2023-07-13T00:46:02;16.30;1.00
24446;DHT22;13347;50.984;5.822;2023-07-13T00:47:56;16.40;1.00
24446;DHT22;13347;50.984;5.822;2023-07-13T00:50:23;16.50;1.00
24446;DHT22;13347;50.984;5.822;2023-07-13T00:52:52;16.60;99.90
24446;DHT22;13347;50.984;5.822;2023-07-13T00:55:20;16.50;99.90
24446;DHT22;13347;50.984;5.822;2023-07-13T00:57:48;16.40;99.90
24446;DHT22;13347;50.984;5.822;2023-07-13T01:00:16;16.40;1.00
24446;DHT22;13347;50.984;5.822;2023-07-13T01:02:44;16.40;1.00
24446;DHT22;13347;50.984;5.822;2023-07-13T01:05:14;16.50;1.00
24446;DHT22;13347;50.984;5.822;2023-07-13T01:07:42;16.50;1.00
24446;DHT22;13347;50.984;5.822;2023-07-13T01:10:10;16.60;1.00
24446;DHT22;13347;50.984;5.822;2023-07-13T01:12:37;16.50;1.00
24446;DHT22;13347;50.984;5.822;2023-07-13T01:15:05;16.40;1.00
24446;DHT22;13347;50.984;5.822;2023-07-13T01:17:33;16.40;1.00
24446;DHT22;13347;50.984;5.822;2023-07-13T01:20:00;16.40;1.00
24446;DHT22;13347;50.984;5.822;2023-07-13T01:22:29;16.40;1.00
24446;DHT22;13347;50.984;5.822;2023-07-13T01:24:57;16.40;1.00
24446;DHT22;13347;50.984;5.822;2023-07-13T01:27:24;16.30;8.80
24446;DHT22;13347;50.984;5.822;2023-07-13T01:29:52;16.30;14.40
24446;DHT22;13347;50.984;5.822;2023-07-13T01:32:27;16.10;99.90
24446;DHT22;13347;50.984;5.822;2023-07-13T01:34:54;16.10;99.90
24446;DHT22;13347;50.984;5.822;2023-07-13T01:37:21;16.00;1.00
24446;DHT22;13347;50.984;5.822;2023-07-13T01:39:50;15.90;1.00
24446;DHT22;13347;50.984;5.822;2023-07-13T01:42:17;15.80;1.00
24446;DHT22;13347;50.984;5.822;2023-07-13T01:44:44;15.70;1.00
24446;DHT22;13347;50.984;5.822;2023-07-13T01:47:11;15.70;99.90
24446;DHT22;13347;50.984;5.822;2023-07-13T01:49:38;15.70;99.90
24446;DHT22;13347;50.984;5.822;2023-07-13T01:52:06;15.60;99.90
24446;DHT22;13347;50.984;5.822;2023-07-13T01:54:34;15.60;1.00
24446;DHT22;13347;50.984;5.822;2023-07-13T01:57:02;15.60;1.00
24446;DHT22;13347;50.984;5.822;2023-07-13T01:59:30;15.60;1.00
24446;DHT22;13347;50.984;5.822;2023-07-13T02:01:58;15.60;1.00
24446;DHT22;13347;50.984;5.822;2023-07-13T02:04:25;15.60;1.00
24446;DHT22;13347;50.984;5.822;2023-07-13T02:06:52;15.60;1.00
24446;DHT22;13347;50.984;5.822;2023-07-13T02:09:20;15.50;1.00
24446;DHT22;13347;50.984;5.822;2023-07-13T02:11:48;15.50;48.60
24446;DHT22;13347;50.984;5.822;2023-07-13T02:14:16;15.50;99.90
24446;DHT22;13347;50.984;5.822;2023-07-13T02:16:43;15.40;99.90
24446;DHT22;13347;50.984;5.822;2023-07-13T02:19:10;15.50;99.90
24446;DHT22;13347;50.984;5.822;2023-07-13T02:21:37;15.40;1.00
24446;DHT22;13347;50.984;5.822;2023-07-13T02:24:05;15.50;1.00
24446;DHT22;13347;50.984;5.822;2023-07-13T02:26:32;15.50;1.00
24446;DHT22;13347;50.984;5.822;2023-07-13T02:28:59;15.40;1.00
24446;DHT22;13347;50.984;5.822;2023-07-13T02:31:27;15.40;1.00
24446;DHT22;13347;50.984;5.822;2023-07-13T02:33:54;15.40;1.00
24446;DHT22;13347;50.984;5.822;2023-07-13T02:36:21;15.40;1.00
24446;DHT22;13347;50.984;5.822;2023-07-13T02:38:49;15.30;99.90
24446;DHT22;13347;50.984;5.822;2023-07-13T02:41:16;15.30;99.90
24446;DHT22;13347;50.984;5.822;2023-07-13T02:43:43;15.30;99.90
24446;DHT22;13347;50.984;5.822;2023-07-13T02:46:11;15.30;1.00
24446;DHT22;13347;50.984;5.822;2023-07-13T02:48:39;15.30;1.00
24446;DHT22;13347;50.984;5.822;2023-07-13T02:51:06;15.30;1.00
24446;DHT22;13347;50.984;5.822;2023-07-13T02:53:34;15.30;1.00
24446;DHT22;13347;50.984;5.822;2023-07-13T02:56:02;15.30;1.00
24446;DHT22;13347;50.984;5.822;2023-07-13T02:58:29;15.30;1.00
24446;DHT22;13347;50.984;5.822;2023-07-13T03:00:57;15.40;1.00
24446;DHT22;13347;50.984;5.822;2023-07-13T03:03:24;15.40;1.00
24446;DHT22;13347;50.984;5.822;2023-07-13T03:05:59;15.50;1.00
24446;DHT22;13347;50.984;5.822;2023-07-13T03:08:27;15.50;1.00
24446;DHT22;13347;50.984;5.822;2023-07-13T03:10:58;15.50;1.00
24446;DHT22;13347;50.984;5.822;2023-07-13T03:13:26;15.50;1.00
24446;DHT22;13347;50.984;5.822;2023-07-13T03:15:53;15.50;1.00
24446;DHT22;13347;50.984;5.822;2023-07-13T03:18:20;15.50;1.00
24446;DHT22;13347;50.984;5.822;2023-07-13T03:20:49;15.40;1.00
24446;DHT22;13347;50.984;5.822;2023-07-13T03:23:18;15.30;1.00
24446;DHT22;13347;50.984;5.822;2023-07-13T03:25:45;15.30;1.00
24446;DHT22;13347;50.984;5.822;2023-07-13T03:28:12;15.40;1.00
24446;DHT22;13347;50.984;5.822;2023-07-13T03:30:40;15.40;1.00
24446;DHT22;13347;50.984;5.822;2023-07-13T03:33:07;15.50;1.00
24446;DHT22;13347;50.984;5.822;2023-07-13T03:35:34;15.50;1.00
24446;DHT22;13347;50.984;5.822;2023-07-13T03:38:01;15.50;1.00
24446;DHT22;13347;50.984;5.822;2023-07-13T03:40:30;15.50;1.00
24446;DHT22;13347;50.984;5.822;2023-07-13T03:42:57;15.40;1.00
24446;DHT22;13347;50.984;5.822;2023-07-13T03:45:24;15.40;1.00
24446;DHT22;13347;50.984;5.822;2023-07-13T03:47:51;15.40;1.00
24446;DHT22;13347;50.984;5.822;2023-07-13T03:50:18;15.40;1.00
24446;DHT22;13347;50.984;5.822;2023-07-13T03:52:45;15.50;1.00
24446;DHT22;13347;50.984;5.822;2023-07-13T03:55:12;15.40;1.00
24446;DHT22;13347;50.984;5.822;2023-07-13T03:57:40;15.40;1.00
24446;DHT22;13347;50.984;5.822;2023-07-13T04:00:08;15.30;1.00
24446;DHT22;13347;50.984;5.822;2023-07-13T04:02:36;15.30;1.00
24446;DHT22;13347;50.984;5.822;2023-07-13T04:05:03;15.30;1.00
24446;DHT22;13347;50.984;5.822;2023-07-13T04:07:30;15.30;1.00
24446;DHT22;13347;50.984;5.822;2023-07-13T04:09:57;15.30;15.80
24446;DHT22;13347;50.984;5.822;2023-07-13T04:12:24;15.20;41.90
24446;DHT22;13347;50.984;5.822;2023-07-13T04:14:53;15.30;70.20
24446;DHT22;13347;50.984;5.822;2023-07-13T04:17:20;15.30;90.60
24446;DHT22;13347;50.984;5.822;2023-07-13T04:19:47;15.30;97.50
24446;DHT22;13347;50.984;5.822;2023-07-13T04:22:14;15.30;99.90
24446;DHT22;13347;50.984;5.822;2023-07-13T04:24:41;15.30;99.90
24446;DHT22;13347;50.984;5.822;2023-07-13T04:27:09;15.30;99.90
24446;DHT22;13347;50.984;5.822;2023-07-13T04:29:36;15.30;99.90
24446;DHT22;13347;50.984;5.822;2023-07-13T04:32:05;15.30;99.90
24446;DHT22;13347;50.984;5.822;2023-07-13T04:34:32;15.40;99.90
24446;DHT22;13347;50.984;5.822;2023-07-13T04:37:00;15.40;99.90
24446;DHT22;13347;50.984;5.822;2023-07-13T04:39:27;15.40;99.90
24446;DHT22;13347;50.984;5.822;2023-07-13T04:41:54;15.40;99.90
24446;DHT22;13347;50.984;5.822;2023-07-13T04:44:21;15.50;99.90
24446;DHT22;13347;50.984;5.822;2023-07-13T04:46:48;15.60;99.90
24446;DHT22;13347;50.984;5.822;2023-07-13T04:49:17;15.60;99.90
24446;DHT22;13347;50.984;5.822;2023-07-13T04:51:44;15.70;99.90
24446;DHT22;13347;50.984;5.822;2023-07-13T04:54:11;15.70;99.90
24446;DHT22;13347;50.984;5.822;2023-07-13T04:56:38;15.70;99.90
24446;DHT22;13347;50.984;5.822;2023-07-13T04:59:05;15.80;99.90
24446;DHT22;13347;50.984;5.822;2023-07-13T05:01:33;15.90;99.90
24446;DHT22;13347;50.984;5.822;2023-07-13T05:04:00;15.90;99.90
24446;DHT22;13347;50.984;5.822;2023-07-13T05:06:28;15.80;99.90
24446;DHT22;13347;50.984;5.822;2023-07-13T05:08:56;15.90;99.90
24446;DHT22;13347;50.984;5.822;2023-07-13T05:11:23;15.90;99.90
24446;DHT22;13347;50.984;5.822;2023-07-13T05:13:50;16.00;99.90
24446;DHT22;13347;50.984;5.822;2023-07-13T05:16:18;16.10;99.90
24446;DHT22;13347;50.984;5.822;2023-07-13T05:18:46;16.10;93.30
24446;DHT22;13347;50.984;5.822;2023-07-13T05:21:13;16.10;79.50
24446;DHT22;13347;50.984;5.822;2023-07-13T05:23:41;16.20;67.80
24446;DHT22;13347;50.984;5.822;2023-07-13T05:26:08;16.10;58.30
24446;DHT22;13347;50.984;5.822;2023-07-13T05:28:36;16.20;33.20
24446;DHT22;13347;50.984;5.822;2023-07-13T05:31:03;16.40;22.40
24446;DHT22;13347;50.984;5.822;2023-07-13T05:33:30;16.40;1.00
24446;DHT22;13347;50.984;5.822;2023-07-13T05:35:57;16.40;1.00
24446;DHT22;13347;50.984;5.822;2023-07-13T05:38:26;16.30;1.00
24446;DHT22;13347;50.984;5.822;2023-07-13T05:40:55;16.10;1.00
24446;DHT22;13347;50.984;5.822;2023-07-13T05:43:22;16.20;1.00
24446;DHT22;13347;50.984;5.822;2023-07-13T05:45:50;16.30;1.00
24446;DHT22;13347;50.984;5.822;2023-07-13T05:48:18;16.40;2.20
24446;DHT22;13347;50.984;5.822;2023-07-13T05:50:45;16.50;1.00
24446;DHT22;13347;50.984;5.822;2023-07-13T05:53:12;16.40;1.00
24446;DHT22;13347;50.984;5.822;2023-07-13T05:55:40;16.30;1.00
24446;DHT22;13347;50.984;5.822;2023-07-13T05:58:09;16.40;7.30
24446;DHT22;13347;50.984;5.822;2023-07-13T06:00:36;16.50;18.70
24446;DHT22;13347;50.984;5.822;2023-07-13T06:03:04;16.70;27.80
24446;DHT22;13347;50.984;5.822;2023-07-13T06:05:32;16.60;1.80
24446;DHT22;13347;50.984;5.822;2023-07-13T06:08:00;16.60;13.90
24446;DHT22;13347;50.984;5.822;2023-07-13T06:10:27;16.90;16.60
24446;DHT22;13347;50.984;5.822;2023-07-13T06:12:54;16.90;1.00
24446;DHT22;13347;50.984;5.822;2023-07-13T06:15:23;16.90;1.00
24446;DHT22;13347;50.984;5.822;2023-07-13T06:17:50;16.90;1.00
24446;DHT22;13347;50.984;5.822;2023-07-13T06:20:17;16.90;1.00
24446;DHT22;13347;50.984;5.822;2023-07-13T06:22:44;17.10;1.00
24446;DHT22;13347;50.984;5.822;2023-07-13T06:25:11;17.10;1.00
24446;DHT22;13347;50.984;5.822;2023-07-13T06:27:38;16.90;1.00
24446;DHT22;13347;50.984;5.822;2023-07-13T06:30:06;16.90;1.00
24446;DHT22;13347;50.984;5.822;2023-07-13T06:32:35;16.90;1.00
24446;DHT22;13347;50.984;5.822;2023-07-13T06:35:02;17.10;1.00
24446;DHT22;13347;50.984;5.822;2023-07-13T06:37:29;17.30;1.00
24446;DHT22;13347;50.984;5.822;2023-07-13T06:39:56;17.30;1.00
24446;DHT22;13347;50.984;5.822;2023-07-13T06:42:23;17.40;1.00
24446;DHT22;13347;50.984;5.822;2023-07-13T06:44:50;17.30;1.00
24446;DHT22;13347;50.984;5.822;2023-07-13T06:47:17;17.30;1.00
24446;DHT22;13347;50.984;5.822;2023-07-13T06:49:46;17.20;1.00
24446;DHT22;13347;50.984;5.822;2023-07-13T06:52:13;17.30;1.00
24446;DHT22;13347;50.984;5.822;2023-07-13T06:54:40;17.40;1.00
24446;DHT22;13347;50.984;5.822;2023-07-13T06:57:08;17.50;1.00
24446;DHT22;13347;50.984;5.822;2023-07-13T06:59:35;17.40;1.00
24446;DHT22;13347;50.984;5.822;2023-07-13T07:02:02;17.50;1.00
24446;DHT22;13347;50.984;5.822;2023-07-13T07:04:29;17.40;1.00
24446;DHT22;13347;50.984;5.822;2023-07-13T07:06:57;17.30;1.00
24446;DHT22;13347;50.984;5.822;2023-07-13T07:09:25;17.50;1.00
24446;DHT22;13347;50.984;5.822;2023-07-13T07:11:52;17.60;1.00
24446;DHT22;13347;50.984;5.822;2023-07-13T07:14:19;18.00;1.00
24446;DHT22;13347;50.984;5.822;2023-07-13T07:16:46;18.00;1.00
24446;DHT22;13347;50.984;5.822;2023-07-13T07:19:13;18.10;1.00
24446;DHT22;13347;50.984;5.822;2023-07-13T07:21:40;17.80;1.00
24446;DHT22;13347;50.984;5.822;2023-07-13T07:24:09;17.90;1.00
24446;DHT22;13347;50.984;5.822;2023-07-13T07:26:36;18.00;1.00
24446;DHT22;13347;50.984;5.822;2023-07-13T07:29:03;18.10;1.00
24446;DHT22;13347;50.984;5.822;2023-07-13T07:31:30;17.80;1.00
24446;DHT22;13347;50.984;5.822;2023-07-13T07:33:57;17.70;1.00
24446;DHT22;13347;50.984;5.822;2023-07-13T07:36:24;17.70;1.00
24446;DHT22;13347;50.984;5.822;2023-07-13T07:38:51;17.60;1.00
24446;DHT22;13347;50.984;5.822;2023-07-13T07:41:20;17.80;1.00
24446;DHT22;13347;50.984;5.822;2023-07-13T07:43:47;17.90;1.00
24446;DHT22;13347;50.984;5.822;2023-07-13T07:46:14;17.80;1.00
24446;DHT22;13347;50.984;5.822;2023-07-13T07:48:41;17.90;1.00
24446;DHT22;13347;50.984;5.822;2023-07-13T07:51:08;17.90;1.00
24446;DHT22;13347;50.984;5.822;2023-07-13T07:53:35;18.00;1.00
24446;DHT22;13347;50.984;5.822;2023-07-13T07:56:03;18.00;1.00
24446;DHT22;13347;50.984;5.822;2023-07-13T07:58:31;18.10;1.00
24446;DHT22;13347;50.984;5.822;2023-07-13T08:01:02;18.20;1.00
24446;DHT22;13347;50.984;5.822;2023-07-13T08:03:29;18.40;99.90
24446;DHT22;13347;50.984;5.822;2023-07-13T08:05:56;18.70;99.90
24446;DHT22;13347;50.984;5.822;2023-07-13T08:08:23;18.80;1.00
24446;DHT22;13347;50.984;5.822;2023-07-13T08:10:51;18.40;1.00
24446;DHT22;13347;50.984;5.822;2023-07-13T08:13:18;18.30;1.00
24446;DHT22;13347;50.984;5.822;2023-07-13T08:15:47;18.30;1.00
24446;DHT22;13347;50.984;5.822;2023-07-13T08:18:15;18.60;1.00
24446;DHT22;13347;50.984;5.822;2023-07-13T08:20:42;18.90;1.00
24446;DHT22;13347;50.984;5.822;2023-07-13T08:23:09;19.00;99.90
24446;DHT22;13347;50.984;5.822;2023-07-13T08:25:37;19.10;4.20
24446;DHT22;13347;50.984;5.822;2023-07-13T08:28:04;19.00;99.90
24446;DHT22;13347;50.984;5.822;2023-07-13T08:30:31;19.00;1.00
24446;DHT22;13347;50.984;5.822;2023-07-13T08:32:59;19.40;1.00
24446;DHT22;13347;50.984;5.822;2023-07-13T08:35:27;19.20;1.00
24446;DHT22;13347;50.984;5.822;2023-07-13T08:37:55;19.30;1.00
24446;DHT22;13347;50.984;5.822;2023-07-13T08:40:23;19.30;1.00
24446;DHT22;13347;50.984;5.822;2023-07-13T08:42:53;19.90;99.90
24446;DHT22;13347;50.984;5.822;2023-07-13T08:45:22;20.10;1.00
24446;DHT22;13347;50.984;5.822;2023-07-13T08:47:51;20.30;1.00
24446;DHT22;13347;50.984;5.822;2023-07-13T08:50:23;20.40;99.90
24446;DHT22;13347;50.984;5.822;2023-07-13T08:52:52;20.70;99.90
24446;DHT22;13347;50.984;5.822;2023-07-13T08:55:20;21.10;1.00
24446;DHT22;13347;50.984;5.822;2023-07-13T08:57:48;21.00;1.00
24446;DHT22;13347;50.984;5.822;2023-07-13T09:00:19;20.90;1.00
24446;DHT22;13347;50.984;5.822;2023-07-13T09:02:46;21.10;1.00
24446;DHT22;13347;50.984;5.822;2023-07-13T09:05:17;21.30;99.90
24446;DHT22;13347;50.984;5.822;2023-07-13T09:07:51;21.20;1.00
24446;DHT22;13347;50.984;5.822;2023-07-13T09:10:23;20.80;99.90
24446;DHT22;13347;50.984;5.822;2023-07-13T09:12:57;21.10;99.90
24446;DHT22;13347;50.984;5.822;2023-07-13T09:15:29;21.30;99.90
24446;DHT22;13347;50.984;5.822;2023-07-13T09:17:59;22.30;93.10
24446;DHT22;13347;50.984;5.822;2023-07-13T09:20:29;22.90;1.00
24446;DHT22;13347;50.984;5.822;2023-07-13T09:23:00;22.00;1.00
24446;DHT22;13347;50.984;5.822;2023-07-13T09:25:29;22.30;1.00
24446;DHT22;13347;50.984;5.822;2023-07-13T09:27:58;23.20;1.00
24446;DHT22;13347;50.984;5.822;2023-07-13T09:30:29;22.50;1.00
24446;DHT22;13347;50.984;5.822;2023-07-13T09:32:57;22.30;99.90
24446;DHT22;13347;50.984;5.822;2023-07-13T09:35:25;22.60;99.90
24446;DHT22;13347;50.984;5.822;2023-07-13T09:37:57;22.70;99.90
24446;DHT22;13347;50.984;5.822;2023-07-13T09:40:27;22.50;99.90
24446;DHT22;13347;50.984;5.822;2023-07-13T09:42:56;22.60;99.90
24446;DHT22;13347;50.984;5.822;2023-07-13T09:45:27;22.80;99.90
24446;DHT22;13347;50.984;5.822;2023-07-13T09:47:58;23.00;1.00
24446;DHT22;13347;50.984;5.822;2023-07-13T09:50:26;23.40;99.90
24446;DHT22;13347;50.984;5.822;2023-07-13T09:52:55;23.10;1.00
24446;DHT22;13347;50.984;5.822;2023-07-13T09:55:27;23.40;1.00
24446;DHT22;13347;50.984;5.822;2023-07-13T09:57:55;23.80;1.00
24446;DHT22;13347;50.984;5.822;2023-07-13T10:00:24;24.00;1.00
24446;DHT22;13347;50.984;5.822;2023-07-13T10:02:58;23.60;1.00
24446;DHT22;13347;50.984;5.822;2023-07-13T10:05:26;24.40;1.00
24446;DHT22;13347;50.984;5.822;2023-07-13T10:07:53;25.10;1.00
24446;DHT22;13347;50.984;5.822;2023-07-13T10:10:22;24.90;99.90
24446;DHT22;13347;50.984;5.822;2023-07-13T10:12:51;24.60;99.90
24446;DHT22;13347;50.984;5.822;2023-07-13T10:15:19;23.30;1.00
24446;DHT22;13347;50.984;5.822;2023-07-13T10:17:47;22.80;1.00
24446;DHT22;13347;50.984;5.822;2023-07-13T10:20:15;22.20;1.00
24446;DHT22;13347;50.984;5.822;2023-07-13T10:22:44;22.00;1.00
24446;DHT22;13347;50.984;5.822;2023-07-13T10:25:14;21.40;1.00
24446;DHT22;13347;50.984;5.822;2023-07-13T10:27:42;21.30;1.00
24446;DHT22;13347;50.984;5.822;2023-07-13T10:30:13;21.10;1.00
24446;DHT22;13347;50.984;5.822;2023-07-13T10:32:42;21.00;1.00
24446;DHT22;13347;50.984;5.822;2023-07-13T10:35:09;20.70;1.00
24446;DHT22;13347;50.984;5.822;2023-07-13T10:37:39;20.70;1.00
24446;DHT22;13347;50.984;5.822;2023-07-13T10:40:11;21.10;1.00
24446;DHT22;13347;50.984;5.822;2023-07-13T10:42:40;21.70;1.00
24446;DHT22;13347;50.984;5.822;2023-07-13T10:45:13;21.70;1.00
24446;DHT22;13347;50.984;5.822;2023-07-13T10:47:41;21.90;1.00
24446;DHT22;13347;50.984;5.822;2023-07-13T10:50:11;21.90;1.00
24446;DHT22;13347;50.984;5.822;2023-07-13T10:52:41;22.80;1.00
24446;DHT22;13347;50.984;5.822;2023-07-13T10:57:51;24.70;1.00
24446;DHT22;13347;50.984;5.822;2023-07-13T11:00:20;24.40;99.90
24446;DHT22;13347;50.984;5.822;2023-07-13T11:02:55;24.60;99.90
24446;DHT22;13347;50.984;5.822;2023-07-13T11:05:26;24.30;99.90
24446;DHT22;13347;50.984;5.822;2023-07-13T11:07:55;24.00;99.90
24446;DHT22;13347;50.984;5.822;2023-07-13T11:10:46;23.90;99.90
24446;DHT22;13347;50.984;5.822;2023-07-13T11:15:57;24.50;49.20
24446;DHT22;13347;50.984;5.822;2023-07-13T11:18:24;24.30;1.00
24446;DHT22;13347;50.984;5.822;2023-07-13T11:20:51;24.30;4.60
24446;DHT22;13347;50.984;5.822;2023-07-13T11:23:20;24.30;37.80
24446;DHT22;13347;50.984;5.822;2023-07-13T11:25:53;24.30;1.00
24446;DHT22;13347;50.984;5.822;2023-07-13T11:28:22;24.40;1.00
24446;DHT22;13347;50.984;5.822;2023-07-13T11:30:53;24.20;1.00
24446;DHT22;13347;50.984;5.822;2023-07-13T11:33:31;24.00;1.00
24446;DHT22;13347;50.984;5.822;2023-07-13T11:36:13;23.90;1.00
24446;DHT22;13347;50.984;5.822;2023-07-13T11:38:41;23.70;1.00
24446;DHT22;13347;50.984;5.822;2023-07-13T11:41:13;24.20;1.00
24446;DHT22;13347;50.984;5.822;2023-07-13T11:43:41;24.70;1.00
24446;DHT22;13347;50.984;5.822;2023-07-13T11:46:12;24.50;1.00
24446;DHT22;13347;50.984;5.822;2023-07-13T11:48:40;24.40;1.00
24446;DHT22;13347;50.984;5.822;2023-07-13T11:51:10;25.30;1.00
24446;DHT22;13347;50.984;5.822;2023-07-13T11:53:44;25.50;1.00
24446;DHT22;13347;50.984;5.822;2023-07-13T11:56:12;25.70;1.00
24446;DHT22;13347;50.984;5.822;2023-07-13T11:58:40;25.90;1.00
24446;DHT22;13347;50.984;5.822;2023-07-13T12:01:10;26.00;1.00
24446;DHT22;13347;50.984;5.822;2023-07-13T12:03:43;26.00;1.00
24446;DHT22;13347;50.984;5.822;2023-07-13T12:06:21;25.50;1.00
24446;DHT22;13347;50.984;5.822;2023-07-13T12:08:48;25.10;1.00
24446;DHT22;13347;50.984;5.822;2023-07-13T12:11:16;25.40;1.00
24446;DHT22;13347;50.984;5.822;2023-07-13T12:13:44;25.50;1.00
24446;DHT22;13347;50.984;5.822;2023-07-13T12:16:14;25.10;1.00
24446;DHT22;13347;50.984;5.822;2023-07-13T12:18:43;25.60;1.00
24446;DHT22;13347;50.984;5.822;2023-07-13T12:21:16;25.40;1.00
24446;DHT22;13347;50.984;5.822;2023-07-13T12:23:44;25.00;1.00
24446;DHT22;13347;50.984;5.822;2023-07-13T12:26:12;24.10;1.00
24446;DHT22;13347;50.984;5.822;2023-07-13T12:28:44;24.40;1.00
24446;DHT22;13347;50.984;5.822;2023-07-13T12:31:22;25.30;1.00
24446;DHT22;13347;50.984;5.822;2023-07-13T12:33:57;25.70;1.00
24446;DHT22;13347;50.984;5.822;2023-07-13T12:36:24;25.50;1.00
24446;DHT22;13347;50.984;5.822;2023-07-13T12:38:52;25.60;1.00
24446;DHT22;13347;50.984;5.822;2023-07-13T12:41:19;25.40;1.00
24446;DHT22;13347;50.984;5.822;2023-07-13T12:43:48;25.10;1.00
24446;DHT22;13347;50.984;5.822;2023-07-13T12:46:17;24.90;1.00
24446;DHT22;13347;50.984;5.822;2023-07-13T12:48:47;24.40;1.00
24446;DHT22;13347;50.984;5.822;2023-07-13T12:51:16;24.40;1.00
24446;DHT22;13347;50.984;5.822;2023-07-13T12:53:47;25.20;1.00
24446;DHT22;13347;50.984;5.822;2023-07-13T12:56:16;25.10;1.00
24446;DHT22;13347;50.984;5.822;2023-07-13T12:58:45;25.10;1.00
24446;DHT22;13347;50.984;5.822;2023-07-13T13:01:14;24.90;1.00
24446;DHT22;13347;50.984;5.822;2023-07-13T13:03:45;24.90;1.00
24446;DHT22;13347;50.984;5.822;2023-07-13T13:06:22;24.90;1.00
24446;DHT22;13347;50.984;5.822;2023-07-13T13:08:52;25.10;1.00
24446;DHT22;13347;50.984;5.822;2023-07-13T13:11:22;25.20;1.00
24446;DHT22;13347;50.984;5.822;2023-07-13T13:13:50;25.60;1.00
24446;DHT22;13347;50.984;5.822;2023-07-13T13:16:20;27.00;1.00
24446;DHT22;13347;50.984;5.822;2023-07-13T13:18:47;26.60;1.00
24446;DHT22;13347;50.984;5.822;2023-07-13T13:21:15;25.90;1.00
24446;DHT22;13347;50.984;5.822;2023-07-13T13:23:44;26.20;1.00
24446;DHT22;13347;50.984;5.822;2023-07-13T13:26:12;25.70;1.00
24446;DHT22;13347;50.984;5.822;2023-07-13T13:28:40;25.50;1.00
24446;DHT22;13347;50.984;5.822;2023-07-13T13:31:08;25.40;1.00
24446;DHT22;13347;50.984;5.822;2023-07-13T13:33:39;25.30;1.00
24446;DHT22;13347;50.984;5.822;2023-07-13T13:36:13;24.70;1.00
24446;DHT22;13347;50.984;5.822;2023-07-13T13:38:41;24.40;1.00
24446;DHT22;13347;50.984;5.822;2023-07-13T13:41:11;24.70;1.00
24446;DHT22;13347;50.984;5.822;2023-07-13T13:43:39;24.70;1.00
24446;DHT22;13347;50.984;5.822;2023-07-13T13:46:11;24.20;1.00
24446;DHT22;13347;50.984;5.822;2023-07-13T13:48:39;24.10;1.00
24446;DHT22;13347;50.984;5.822;2023-07-13T13:51:11;24.00;1.00
24446;DHT22;13347;50.984;5.822;2023-07-13T13:53:39;23.90;99.90
24446;DHT22;13347;50.984;5.822;2023-07-13T13:56:07;23.90;99.90
24446;DHT22;13347;50.984;5.822;2023-07-13T13:58:35;23.90;99.90
24446;DHT22;13347;50.984;5.822;2023-07-13T14:01:02;23.90;99.90
24446;DHT22;13347;50.984;5.822;2023-07-13T14:03:33;23.80;99.90
24446;DHT22;13347;50.984;5.822;2023-07-13T14:06:00;23.70;99.90
24446;DHT22;13347;50.984;5.822;2023-07-13T14:08:28;23.70;99.90
24446;DHT22;13347;50.984;5.822;2023-07-13T14:10:55;23.50;99.90
24446;DHT22;13347;50.984;5.822;2023-07-13T14:13:25;23.30;99.90
24446;DHT22;13347;50.984;5.822;2023-07-13T14:15:54;22.50;1.00
24446;DHT22;13347;50.984;5.822;2023-07-13T14:18:21;21.60;1.00
24446;DHT22;13347;50.984;5.822;2023-07-13T14:20:49;21.00;1.00
24446;DHT22;13347;50.984;5.822;2023-07-13T14:23:17;20.70;1.00
24446;DHT22;13347;50.984;5.822;2023-07-13T14:25:45;20.50;1.00
24446;DHT22;13347;50.984;5.822;2023-07-13T14:28:19;20.40;1.00
24446;DHT22;13347;50.984;5.822;2023-07-13T14:30:46;20.40;1.00
24446;DHT22;13347;50.984;5.822;2023-07-13T14:33:15;20.20;1.00
24446;DHT22;13347;50.984;5.822;2023-07-13T14:35:42;20.10;1.00
24446;DHT22;13347;50.984;5.822;2023-07-13T14:38:10;20.00;1.00
24446;DHT22;13347;50.984;5.822;2023-07-13T14:40:39;20.10;99.90
24446;DHT22;13347;50.984;5.822;2023-07-13T14:43:08;20.20;99.90
24446;DHT22;13347;50.984;5.822;2023-07-13T14:45:36;20.20;99.90
24446;DHT22;13347;50.984;5.822;2023-07-13T14:48:09;20.00;99.90
24446;DHT22;13347;50.984;5.822;2023-07-13T14:50:38;19.80;99.90
24446;DHT22;13347;50.984;5.822;2023-07-13T14:53:09;19.60;99.90
24446;DHT22;13347;50.984;5.822;2023-07-13T14:55:36;19.50;99.90
24446;DHT22;13347;50.984;5.822;2023-07-13T14:58:03;19.60;99.90
24446;DHT22;13347;50.984;5.822;2023-07-13T15:00:30;19.60;99.90
24446;DHT22;13347;50.984;5.822;2023-07-13T15:02:58;19.70;99.90
24446;DHT22;13347;50.984;5.822;2023-07-13T15:05:27;19.90;99.90
24446;DHT22;13347;50.984;5.822;2023-07-13T15:07:58;20.00;99.90
24446;DHT22;13347;50.984;5.822;2023-07-13T15:10:27;20.20;99.90
24446;DHT22;13347;50.984;5.822;2023-07-13T15:12:56;20.30;99.90
24446;DHT22;13347;50.984;5.822;2023-07-13T15:15:23;20.50;99.90
24446;DHT22;13347;50.984;5.822;2023-07-13T15:17:50;20.60;99.90
24446;DHT22;13347;50.984;5.822;2023-07-13T15:20:19;20.70;77.90
24446;DHT22;13347;50.984;5.822;2023-07-13T15:22:48;20.90;57.70
24446;DHT22;13347;50.984;5.822;2023-07-13T15:25:18;21.00;1.00
24446;DHT22;13347;50.984;5.822;2023-07-13T15:27:46;21.10;1.00
24446;DHT22;13347;50.984;5.822;2023-07-13T15:30:13;21.40;1.00
24446;DHT22;13347;50.984;5.822;2023-07-13T15:32:41;21.50;1.00
24446;DHT22;13347;50.984;5.822;2023-07-13T15:35:13;21.80;1.00
24446;DHT22;13347;50.984;5.822;2023-07-13T15:37:41;22.20;1.00
24446;DHT22;13347;50.984;5.822;2023-07-13T15:40:09;22.80;1.00
24446;DHT22;13347;50.984;5.822;2023-07-13T15:42:38;23.10;1.00
24446;DHT22;13347;50.984;5.822;2023-07-13T15:45:17;23.20;1.00
24446;DHT22;13347;50.984;5.822;2023-07-13T15:47:44;23.60;1.00
24446;DHT22;13347;50.984;5.822;2023-07-13T15:50:12;24.30;1.00
24446;DHT22;13347;50.984;5.822;2023-07-13T15:52:39;24.60;1.00
24446;DHT22;13347;50.984;5.822;2023-07-13T15:55:08;24.40;1.00